Time;durP1;ratioP1;P1;durP2;ratioP2;P2;SDS_P1;SDS_P2;PMS_P1;PMS_P2;Temp;Humidity;BMP_temperature;BMP_pressure;BME280_temperature;BME280_humidity;BME280_pressure;Samples;Min_cycle;Max_cycle;Signal;HPM_P1;HPM_P2
2024/02/22 00:03:44;;;;;;;0.00;0.00;;;23.60;46.90;;;;;;4990031;28;20192;-40
2024/02/22 00:06:16;;;;;;;0.00;0.00;;;23.70;46.90;;;;;;5005732;28;20224;-40
2024/02/22 00:08:49;;;;;;;0.00;0.00;;;23.70;47.00;;;;;;5009842;28;20205;-41
2024/02/22 00:11:20;;;;;;;0.03;0.03;;;23.70;47.00;;;;;;5018286;28;20204;-41
2024/02/22 00:13:51;;;;;;;0.00;0.00;;;23.80;47.50;;;;;;5027692;28;20196;-43
2024/02/22 00:16:22;;;;;;;0.00;0.00;;;23.80;47.20;;;;;;5009230;28;20675;-40
2024/02/22 00:18:53;;;;;;;0.00;0.00;;;23.80;47.20;;;;;;5009784;28;20720;-41
2024/02/22 00:21:23;;;;;;;0.10;0.10;;;23.90;47.20;;;;;;5009975;28;20207;-42
2024/02/22 00:23:56;;;;;;;0.00;0.00;;;23.90;47.10;;;;;;5012589;28;20212;-40
2024/02/22 00:26:27;;;;;;;0.00;0.00;;;23.90;47.20;;;;;;5008997;28;20225;-40
2024/02/22 00:28:58;;;;;;;0.00;0.00;;;24.00;47.40;;;;;;5009059;28;20224;-40
2024/02/22 00:31:29;;;;;;;0.00;0.00;;;24.00;48.00;;;;;;5010449;28;20691;-41
2024/02/22 00:34:00;;;;;;;0.00;0.00;;;24.00;47.30;;;;;;5009886;28;20279;-40
2024/02/22 00:36:31;;;;;;;0.00;0.00;;;24.00;47.40;;;;;;5009701;28;20209;-40
2024/02/22 00:39:03;;;;;;;0.00;0.00;;;24.10;47.40;;;;;;5023747;28;20262;-40
2024/02/22 00:41:35;;;;;;;0.00;0.00;;;24.10;47.50;;;;;;5014128;28;20615;-41
2024/02/22 00:44:07;;;;;;;0.00;0.00;;;24.10;47.30;;;;;;5009978;28;20314;-40
2024/02/22 00:46:38;;;;;;;0.00;0.00;;;24.10;47.40;;;;;;5009967;28;20197;-40
2024/02/22 00:49:09;;;;;;;0.00;0.00;;;24.20;47.50;;;;;;5008939;28;20514;-41
2024/02/22 00:51:40;;;;;;;0.00;0.00;;;24.20;47.60;;;;;;5009832;28;20208;-40
2024/02/22 00:54:13;;;;;;;0.00;0.00;;;24.20;47.50;;;;;;4989185;28;20731;-41
2024/02/22 00:56:43;;;;;;;0.00;0.00;;;24.30;47.50;;;;;;4996539;28;20196;-41
2024/02/22 00:59:14;;;;;;;0.00;0.00;;;24.30;47.60;;;;;;5009926;28;20608;-40
2024/02/22 01:01:45;;;;;;;0.00;0.00;;;24.30;47.60;;;;;;5000984;28;20201;-40
2024/02/22 01:04:16;;;;;;;0.00;0.00;;;24.30;47.60;;;;;;4990359;28;20198;-40
2024/02/22 01:06:47;;;;;;;0.00;0.00;;;24.40;47.60;;;;;;5004918;28;20196;-40
2024/02/22 01:09:20;;;;;;;0.00;0.00;;;24.40;47.60;;;;;;5029166;28;20616;-40
2024/02/22 01:11:52;;;;;;;0.00;0.00;;;24.40;47.80;;;;;;5028996;28;20204;-40
2024/02/22 01:14:23;;;;;;;0.00;0.00;;;24.40;47.60;;;;;;5028276;28;20707;-40
2024/02/22 01:16:54;;;;;;;0.10;0.10;;;24.50;47.80;;;;;;5020133;28;20200;-41
2024/02/22 01:19:25;;;;;;;0.00;0.00;;;24.50;47.80;;;;;;4997586;28;20236;-40
2024/02/22 01:21:56;;;;;;;0.00;0.00;;;24.50;47.70;;;;;;4990158;28;20216;-40
2024/02/22 01:24:29;;;;;;;0.00;0.00;;;24.50;47.80;;;;;;4989340;28;20256;-40
2024/02/22 01:27:00;;;;;;;0.00;0.00;;;24.50;47.90;;;;;;4990043;28;20215;-40
2024/02/22 01:29:31;;;;;;;0.00;0.00;;;24.60;48.00;;;;;;4989446;28;20233;-40
2024/02/22 01:32:01;;;;;;;0.00;0.00;;;24.60;47.90;;;;;;4989499;28;20201;-40
2024/02/22 01:34:33;;;;;;;0.00;0.00;;;24.70;48.00;;;;;;5024346;28;20192;-40
2024/02/22 01:37:04;;;;;;;0.00;0.00;;;24.70;48.00;;;;;;5016881;28;20204;-41
2024/02/22 01:39:37;;;;;;;0.08;0.08;;;24.70;48.00;;;;;;5008987;28;20231;-40
2024/02/22 01:42:07;;;;;;;0.00;0.00;;;24.70;47.90;;;;;;5008916;28;20215;-40
2024/02/22 01:44:38;;;;;;;0.00;0.00;;;24.70;47.90;;;;;;5008814;28;20201;-40
2024/02/22 01:47:09;;;;;;;0.00;0.00;;;24.70;47.70;;;;;;5018188;28;20208;-40
2024/02/22 01:49:40;;;;;;;0.00;0.00;;;24.80;47.90;;;;;;5028280;28;20228;-41
2024/02/22 01:52:11;;;;;;;0.00;0.00;;;24.80;47.90;;;;;;4997864;28;20690;-40
2024/02/22 01:54:44;;;;;;;0.00;0.00;;;24.80;47.80;;;;;;4989393;28;20228;-41
2024/02/22 01:57:15;;;;;;;0.00;0.00;;;24.80;47.80;;;;;;4989444;28;20204;-41
2024/02/22 01:59:45;;;;;;;0.00;0.00;;;24.90;47.80;;;;;;5007094;28;20727;-40
2024/02/22 02:02:16;;;;;;;0.00;0.00;;;24.90;47.80;;;;;;5015548;28;20581;-40
2024/02/22 02:04:47;;;;;;;0.10;0.10;;;24.90;47.70;;;;;;5007600;28;20208;-41
2024/02/22 02:07:18;;;;;;;0.00;0.00;;;24.90;47.70;;;;;;5008193;28;20568;-40
2024/02/22 02:09:52;;;;;;;0.00;0.00;;;24.90;47.60;;;;;;5008370;28;20224;-40
2024/02/22 02:12:27;;;;;;;0.00;0.00;;;25.00;47.70;;;;;;5008590;28;20316;-42
2024/02/22 02:14:58;;;;;;;0.00;0.00;;;24.90;47.60;;;;;;5021837;28;20206;-42
2024/02/22 02:17:28;;;;;;;0.00;0.00;;;25.00;47.60;;;;;;5028456;28;20672;-39
2024/02/22 02:20:00;;;;;;;0.00;0.00;;;25.00;47.60;;;;;;5027866;28;20585;-40
2024/02/22 02:22:52;;;;;;;0.00;0.00;;;25.00;47.70;;;;;;5027407;28;20215;-41
2024/02/22 02:25:25;;;;;;;0.00;0.00;;;25.00;47.60;;;;;;5027761;28;20196;-40
2024/02/22 02:27:56;;;;;;;0.00;0.00;;;25.00;47.60;;;;;;5022756;28;20444;-40
2024/02/22 02:30:27;;;;;;;0.00;0.00;;;25.00;47.50;;;;;;5007012;28;20221;-40
2024/02/22 02:32:58;;;;;;;0.00;0.00;;;25.10;47.60;;;;;;5008249;28;20707;-39
2024/02/22 02:35:28;;;;;;;0.00;0.00;;;25.10;47.50;;;;;;5007424;28;20203;-41
2024/02/22 02:38:00;;;;;;;0.00;0.00;;;25.10;47.50;;;;;;5007788;28;20200;-43
2024/02/22 02:40:32;;;;;;;0.00;0.00;;;25.10;47.60;;;;;;5007431;28;20688;-40
2024/02/22 02:43:03;;;;;;;0.00;0.00;;;25.10;47.50;;;;;;5022647;28;20200;-41
2024/02/22 02:45:33;;;;;;;0.00;0.00;;;25.10;47.50;;;;;;5027819;28;20206;-40
2024/02/22 02:48:04;;;;;;;0.00;0.00;;;25.20;47.50;;;;;;5027369;28;20208;-40
2024/02/22 02:50:35;;;;;;;0.00;0.00;;;25.20;47.40;;;;;;5027867;28;20216;-40
2024/02/22 02:53:05;;;;;;;0.00;0.00;;;25.20;47.40;;;;;;5027494;28;20231;-41
2024/02/22 02:55:43;;;;;;;0.00;0.00;;;25.20;47.40;;;;;;5026926;28;20203;-40
2024/02/22 02:58:13;;;;;;;0.00;0.00;;;25.20;47.40;;;;;;5027511;28;20204;-39
2024/02/22 03:00:44;;;;;;;0.00;0.00;;;25.30;47.40;;;;;;5009397;28;20243;-43
2024/02/22 03:03:15;;;;;;;0.00;0.00;;;25.30;47.40;;;;;;4992005;28;20206;-40
2024/02/22 03:05:45;;;;;;;0.00;0.00;;;25.30;47.30;;;;;;4992148;28;20205;-44
2024/02/22 03:08:16;;;;;;;0.00;0.00;;;25.30;47.30;;;;;;5010431;28;20197;-40
2024/02/22 03:10:48;;;;;;;0.00;0.00;;;25.30;47.30;;;;;;5011362;28;20220;-42
2024/02/22 03:13:19;;;;;;;0.00;0.00;;;25.30;47.30;;;;;;5011013;28;20232;-40
2024/02/22 03:15:51;;;;;;;0.00;0.00;;;25.30;47.20;;;;;;5008196;28;20189;-41
2024/02/22 03:18:21;;;;;;;0.00;0.00;;;25.40;47.20;;;;;;5010674;28;20295;-40
2024/02/22 03:20:52;;;;;;;0.00;0.00;;;25.40;47.30;;;;;;5010352;28;20224;-40
2024/02/22 03:23:23;;;;;;;0.00;0.00;;;25.40;47.20;;;;;;5010666;28;20552;-40
2024/02/22 03:25:57;;;;;;;0.00;0.00;;;25.40;47.20;;;;;;4993641;28;20308;-40
2024/02/22 03:28:28;;;;;;;0.00;0.00;;;25.50;47.20;;;;;;4988132;28;20302;-40
2024/02/22 03:30:59;;;;;;;0.05;0.05;;;25.50;47.80;;;;;;4997540;28;20661;-39
2024/02/22 03:33:29;;;;;;;0.00;0.00;;;25.50;47.20;;;;;;5006585;28;20228;-40
2024/02/22 03:36:00;;;;;;;0.00;0.00;;;25.50;47.10;;;;;;5006958;28;20290;-40
2024/02/22 03:38:31;;;;;;;0.00;0.00;;;25.60;47.10;;;;;;5012679;28;20204;-39
2024/02/22 03:41:03;;;;;;;0.00;0.00;;;25.60;47.10;;;;;;5027594;28;20211;-39
2024/02/22 03:43:37;;;;;;;0.00;0.00;;;25.60;47.10;;;;;;5018828;28;20657;-40
2024/02/22 03:46:08;;;;;;;0.00;0.00;;;25.60;47.00;;;;;;5010549;28;20831;-40
2024/02/22 03:48:41;;;;;;;0.00;0.00;;;25.60;47.00;;;;;;5007996;28;20219;-39
2024/02/22 03:51:12;;;;;;;0.00;0.00;;;25.60;46.90;;;;;;5013580;28;20203;-40
2024/02/22 03:53:42;;;;;;;0.00;0.00;;;25.60;46.80;;;;;;5030692;28;20232;-41
2024/02/22 03:56:15;;;;;;;0.00;0.00;;;25.70;46.90;;;;;;5031189;28;20207;-40
2024/02/22 03:58:45;;;;;;;0.00;0.00;;;25.70;46.90;;;;;;5030568;28;20211;-40
2024/02/22 04:01:17;;;;;;;0.00;0.00;;;25.70;46.90;;;;;;5030391;28;20196;-40
2024/02/22 04:03:48;;;;;;;0.00;0.00;;;25.70;46.80;;;;;;5029484;28;20197;-40
2024/02/22 04:06:19;;;;;;;0.00;0.00;;;25.70;46.70;;;;;;5014080;28;20205;-40
2024/02/22 04:08:49;;;;;;;0.00;0.00;;;25.70;46.70;;;;;;5010358;28;20220;-40
2024/02/22 04:11:22;;;;;;;0.00;0.00;;;25.70;46.70;;;;;;5010163;28;20201;-40
2024/02/22 04:13:52;;;;;;;0.00;0.00;;;25.70;46.70;;;;;;4989731;28;20233;-41
2024/02/22 04:16:23;;;;;;;0.00;0.00;;;25.70;46.70;;;;;;4990141;28;20209;-40
2024/02/22 04:18:54;;;;;;;0.00;0.00;;;25.70;46.60;;;;;;5024535;28;20226;-40
2024/02/22 04:21:24;;;;;;;0.00;0.00;;;25.80;46.70;;;;;;5009987;28;20197;-40
2024/02/22 04:23:55;;;;;;;0.00;0.00;;;25.80;46.60;;;;;;5009633;28;20201;-39
2024/02/22 04:26:28;;;;;;;0.00;0.00;;;25.70;46.50;;;;;;5010129;28;20688;-41
2024/02/22 04:28:58;;;;;;;0.00;0.00;;;25.70;46.50;;;;;;5010222;28;20230;-41
2024/02/22 04:31:29;;;;;;;0.00;0.00;;;25.70;46.50;;;;;;5019423;28;20227;-41
2024/02/22 04:34:00;;;;;;;0.00;0.00;;;25.80;46.50;;;;;;5010021;28;20250;-40
2024/02/22 04:36:31;;;;;;;0.00;0.00;;;25.70;46.40;;;;;;5009195;28;20279;-39
2024/02/22 04:39:02;;;;;;;0.00;0.00;;;25.70;46.40;;;;;;5007727;28;20566;-41
2024/02/22 04:41:34;;;;;;;0.00;0.00;;;25.70;46.40;;;;;;5010117;28;20196;-41
2024/02/22 04:44:06;;;;;;;0.00;0.00;;;25.70;46.40;;;;;;5012433;28;20193;-40
2024/02/22 04:46:37;;;;;;;0.00;0.00;;;25.70;46.40;;;;;;5029756;28;20211;-40
2024/02/22 04:49:09;;;;;;;0.10;0.10;;;25.70;46.40;;;;;;5029374;28;20216;-41
2024/02/22 04:51:40;;;;;;;0.00;0.00;;;25.70;46.40;;;;;;5029320;28;20198;-40
2024/02/22 04:54:11;;;;;;;0.00;0.00;;;25.70;46.40;;;;;;5028824;28;20239;-40
2024/02/22 04:56:43;;;;;;;0.00;0.00;;;25.70;46.40;;;;;;5029686;28;20241;-40
2024/02/22 04:59:14;;;;;;;0.00;0.00;;;25.70;46.40;;;;;;5029276;28;20216;-44
2024/02/22 05:01:45;;;;;;;0.00;0.00;;;25.70;46.40;;;;;;4992056;28;20212;-41
2024/02/22 05:04:16;;;;;;;0.00;0.00;;;25.70;46.40;;;;;;4989735;28;20204;-41
2024/02/22 05:06:47;;;;;;;0.00;0.00;;;25.60;46.40;;;;;;4998787;28;20215;-40
2024/02/22 05:09:17;;;;;;;0.00;0.00;;;25.70;46.40;;;;;;5009096;28;20244;-39
2024/02/22 05:11:53;;;;;;;0.00;0.00;;;25.70;46.40;;;;;;5025110;28;20200;-40
2024/02/22 05:14:24;;;;;;;0.00;0.00;;;25.70;46.40;;;;;;5013752;28;20252;-44
2024/02/22 05:16:54;;;;;;;0.00;0.00;;;25.70;46.40;;;;;;4989430;28;20726;-44
2024/02/22 05:19:25;;;;;;;0.00;0.00;;;25.60;46.30;;;;;;4995824;28;20240;-45
2024/02/22 05:21:56;;;;;;;0.00;0.00;;;25.70;46.40;;;;;;5008072;28;20205;-40
2024/02/22 05:24:28;;;;;;;0.00;0.00;;;25.70;46.40;;;;;;5016029;28;20279;-40
2024/02/22 05:27:00;;;;;;;0.00;0.00;;;25.70;46.40;;;;;;5028584;28;20192;-40
2024/02/22 05:29:31;;;;;;;0.00;0.00;;;25.70;46.40;;;;;;5026603;28;20607;-40
2024/02/22 05:32:01;;;;;;;0.00;0.00;;;25.70;46.30;;;;;;5008062;28;20205;-45
2024/02/22 05:34:32;;;;;;;0.00;0.00;;;25.70;46.30;;;;;;5008122;28;20223;-44
2024/02/22 05:37:08;;;;;;;0.00;0.00;;;25.70;46.30;;;;;;5012508;28;20648;-43
2024/02/22 05:39:38;;;;;;;0.00;0.00;;;25.70;46.30;;;;;;5028318;28;20310;-45
2024/02/22 05:42:11;;;;;;;0.00;0.00;;;25.70;46.30;;;;;;5028158;28;20204;-44
2024/02/22 05:44:42;;;;;;;0.00;0.00;;;25.70;46.30;;;;;;5019186;28;20201;-44
2024/02/22 05:47:13;;;;;;;0.00;0.00;;;25.70;46.30;;;;;;4992671;28;20209;-44
2024/02/22 05:49:44;;;;;;;0.00;0.00;;;25.60;46.10;;;;;;4992135;28;20218;-46
2024/02/22 05:52:14;;;;;;;0.00;0.00;;;25.60;46.10;;;;;;4992740;28;20209;-44
2024/02/22 05:54:45;;;;;;;0.00;0.00;;;25.60;46.10;;;;;;4994312;28;20637;-45
2024/02/22 05:57:18;;;;;;;0.00;0.00;;;25.60;46.10;;;;;;4992518;28;20641;-40
2024/02/22 05:59:48;;;;;;;0.00;0.00;;;25.60;46.10;;;;;;4992035;28;20221;-40
2024/02/22 06:02:19;;;;;;;0.00;0.00;;;25.60;46.10;;;;;;4992093;28;20209;-40
2024/02/22 06:04:50;;;;;;;0.00;0.00;;;25.60;46.00;;;;;;4991125;28;20216;-41
2024/02/22 06:07:20;;;;;;;0.00;0.00;;;25.60;46.00;;;;;;5005746;28;20197;-40
2024/02/22 06:09:51;;;;;;;0.00;0.00;;;25.60;46.00;;;;;;5011665;28;20279;-40
2024/02/22 06:12:24;;;;;;;0.00;0.00;;;25.60;46.00;;;;;;5011174;28;20189;-40
2024/02/22 06:14:54;;;;;;;0.00;0.00;;;25.60;46.00;;;;;;5011742;28;20254;-40
2024/02/22 06:17:25;;;;;;;0.00;0.00;;;25.60;46.00;;;;;;5011701;28;20719;-40
2024/02/22 06:19:55;;;;;;;0.00;0.00;;;25.60;45.90;;;;;;5010849;28;20704;-40
2024/02/22 06:22:26;;;;;;;0.00;0.00;;;25.60;45.90;;;;;;5011382;28;20554;-40
2024/02/22 06:24:57;;;;;;;0.00;0.00;;;25.60;45.90;;;;;;5011621;28;20205;-40
2024/02/22 06:27:29;;;;;;;0.00;0.00;;;25.60;45.90;;;;;;5011681;28;20193;-43
2024/02/22 06:30:00;;;;;;;0.00;0.00;;;25.60;45.90;;;;;;5011514;28;20275;-40
2024/02/22 06:32:31;;;;;;;0.00;0.00;;;25.60;46.60;;;;;;5010843;28;20424;-41
2024/02/22 06:35:01;;;;;;;0.00;0.00;;;25.50;45.80;;;;;;5010619;28;20228;-40
2024/02/22 06:37:32;;;;;;;0.00;0.00;;;25.50;45.80;;;;;;5011513;28;20213;-40
2024/02/22 06:40:05;;;;;;;0.00;0.00;;;25.50;45.90;;;;;;5011552;28;20220;-40
2024/02/22 06:42:37;;;;;;;0.00;0.00;;;25.50;45.90;;;;;;5004852;28;20201;-43
2024/02/22 06:45:09;;;;;;;0.00;0.00;;;25.50;45.80;;;;;;4992792;28;20206;-40
2024/02/22 06:47:39;;;;;;;0.00;0.00;;;25.50;45.80;;;;;;4992899;28;20195;-40
2024/02/22 06:50:11;;;;;;;0.00;0.00;;;25.50;45.80;;;;;;5006781;28;20232;-40
2024/02/22 06:52:41;;;;;;;0.00;0.00;;;25.50;45.90;;;;;;5000386;28;20193;-40
2024/02/22 06:55:13;;;;;;;0.00;0.00;;;25.50;45.80;;;;;;5008181;28;20235;-40
2024/02/22 06:57:45;;;;;;;0.00;0.00;;;25.40;45.80;;;;;;5027419;28;20207;-44
2024/02/22 07:00:16;;;;;;;0.00;0.00;;;25.50;45.80;;;;;;5018421;28;20224;-41
2024/02/22 07:02:47;;;;;;;0.00;0.00;;;25.50;45.90;;;;;;5007228;28;20201;-40
2024/02/22 07:05:18;;;;;;;0.00;0.00;;;25.40;45.80;;;;;;5007629;28;20637;-41
2024/02/22 07:07:52;;;;;;;0.00;0.00;;;25.50;45.80;;;;;;5017898;28;20603;-40
2024/02/22 07:10:23;;;;;;;0.00;0.00;;;25.40;45.80;;;;;;5027120;28;20224;-43
2024/02/22 07:12:56;;;;;;;0.05;0.05;;;25.40;45.80;;;;;;5021707;28;20607;-42
2024/02/22 07:15:27;;;;;;;0.05;0.05;;;25.40;45.80;;;;;;4988051;28;20233;-41
2024/02/22 07:17:58;;;;;;;0.00;0.00;;;25.40;45.80;;;;;;4991748;28;20208;-41
2024/02/22 07:20:28;;;;;;;0.00;0.00;;;25.40;45.70;;;;;;5019536;28;20223;-43
2024/02/22 07:22:59;;;;;;;0.00;0.00;;;25.40;45.80;;;;;;5029984;28;20459;-41
2024/02/22 07:25:30;;;;;;;0.00;0.00;;;25.40;45.80;;;;;;5030564;28;20208;-41
2024/02/22 07:28:03;;;;;;;0.00;0.00;;;25.30;45.70;;;;;;5028931;28;20202;-41
2024/02/22 07:30:34;;;;;;;0.00;0.00;;;25.30;45.70;;;;;;4991240;28;20333;-43
2024/02/22 07:33:04;;;;;;;0.00;0.00;;;25.30;45.70;;;;;;4993416;28;20224;-45
2024/02/22 07:35:35;;;;;;;0.00;0.00;;;25.30;45.70;;;;;;5031160;28;20234;-40
2024/02/22 07:38:06;;;;;;;0.00;0.00;;;25.30;45.70;;;;;;5011269;28;20216;-47
2024/02/22 07:40:37;;;;;;;0.00;0.00;;;25.30;45.70;;;;;;5011611;28;20260;-43
2024/02/22 07:43:09;;;;;;;0.00;0.00;;;25.30;45.70;;;;;;5010996;28;20224;-43
2024/02/22 07:45:40;;;;;;;0.00;0.00;;;25.30;45.70;;;;;;5011594;28;20307;-42
2024/02/22 07:48:11;;;;;;;0.00;0.00;;;25.30;45.70;;;;;;5012943;28;20201;-47
2024/02/22 07:50:42;;;;;;;0.00;0.00;;;25.20;45.60;;;;;;5011013;28;20219;-44
2024/02/22 07:53:12;;;;;;;0.00;0.00;;;25.30;45.60;;;;;;5014428;28;20196;-43
2024/02/22 07:55:43;;;;;;;0.00;0.00;;;25.20;45.60;;;;;;5014543;28;20235;-42
2024/02/22 07:58:17;;;;;;;0.00;0.00;;;25.20;45.60;;;;;;5014759;28;20197;-42
2024/02/22 08:00:48;;;;;;;0.00;0.00;;;25.20;45.60;;;;;;5014243;28;20216;-40
2024/02/22 08:03:20;;;;;;;0.00;0.00;;;25.20;45.50;;;;;;5013407;28;20217;-40
2024/02/22 08:05:52;;;;;;;0.00;0.00;;;25.20;45.50;;;;;;5013960;28;20197;-44
2024/02/22 08:08:23;;;;;;;0.00;0.00;;;25.20;45.50;;;;;;5013871;28;20205;-40
2024/02/22 08:10:54;;;;;;;0.00;0.00;;;25.20;45.50;;;;;;5010543;28;20213;-41
2024/02/22 08:13:26;;;;;;;0.00;0.00;;;25.20;45.50;;;;;;5012786;28;20637;-40
2024/02/22 08:16:03;;;;;;;0.00;0.00;;;25.10;45.50;;;;;;5013642;28;20232;-41
2024/02/22 08:18:34;;;;;;;0.00;0.00;;;25.10;45.40;;;;;;5011921;28;20679;-40
2024/02/22 08:21:05;;;;;;;0.00;0.00;;;25.10;45.40;;;;;;5013245;28;20225;-39
2024/02/22 08:23:36;;;;;;;0.00;0.00;;;25.10;45.40;;;;;;5013630;28;20201;-41
2024/02/22 08:26:06;;;;;;;0.00;0.00;;;25.10;45.40;;;;;;5012775;28;20205;-40
2024/02/22 08:28:39;;;;;;;0.00;0.00;;;25.10;46.00;;;;;;5012164;28;20626;-41
2024/02/22 08:31:11;;;;;;;0.00;0.00;;;25.00;45.40;;;;;;5013268;28;20200;-42
2024/02/22 08:33:42;;;;;;;0.00;0.00;;;25.00;45.40;;;;;;5012201;28;20197;-43
2024/02/22 08:36:12;;;;;;;0.00;0.00;;;25.00;45.50;;;;;;5013899;28;20303;-41
2024/02/22 08:38:43;;;;;;;0.00;0.00;;;25.00;45.40;;;;;;5013624;28;20197;-45
2024/02/22 08:41:14;;;;;;;0.00;0.00;;;25.00;45.40;;;;;;5013505;28;20208;-40
2024/02/22 08:43:46;;;;;;;0.00;0.00;;;25.00;45.50;;;;;;5009263;28;20201;-40
2024/02/22 08:46:17;;;;;;;0.00;0.00;;;25.00;45.50;;;;;;5006907;28;20455;-39
2024/02/22 08:48:47;;;;;;;0.00;0.00;;;24.90;46.00;;;;;;5009084;28;20200;-39
2024/02/22 08:51:18;;;;;;;0.00;0.00;;;25.00;45.90;;;;;;5004272;28;20256;-40
2024/02/22 08:53:49;;;;;;;0.00;0.00;;;25.10;45.60;;;;;;4990262;28;20244;-38
2024/02/22 08:56:20;;;;;;;0.00;0.00;;;25.10;45.50;;;;;;5000416;28;20224;-39
2024/02/22 08:58:52;;;;;;;0.00;0.00;;;25.10;45.40;;;;;;5029249;28;20610;-39
2024/02/22 09:01:24;;;;;;;0.00;0.00;;;25.10;46.10;;;;;;5014526;28;20197;-40
2024/02/22 09:03:54;;;;;;;0.00;0.00;;;25.10;45.50;;;;;;5004308;28;20205;-40
2024/02/22 09:06:25;;;;;;;0.00;0.00;;;25.10;45.50;;;;;;5010107;28;20216;-39
2024/02/22 09:08:56;;;;;;;0.00;0.00;;;25.00;45.60;;;;;;5006023;28;20304;-39
2024/02/22 09:11:26;;;;;;;0.00;0.00;;;25.00;45.60;;;;;;5023952;28;20207;-40
2024/02/22 09:13:59;;;;;;;0.00;0.00;;;24.90;45.60;;;;;;5028846;28;20254;-41
2024/02/22 09:16:30;;;;;;;0.00;0.00;;;24.90;45.70;;;;;;5028915;28;20220;-39
2024/02/22 09:19:00;;;;;;;0.00;0.00;;;24.90;45.80;;;;;;5028953;28;20307;-39
2024/02/22 09:21:32;;;;;;;0.00;0.00;;;24.90;45.80;;;;;;5018726;28;20609;-39
2024/02/22 09:24:02;;;;;;;0.00;0.00;;;24.80;45.80;;;;;;5013103;28;20204;-39
2024/02/22 09:26:35;;;;;;;0.10;0.10;;;24.80;45.90;;;;;;5028705;28;20200;-40
2024/02/22 09:29:07;;;;;;;0.00;0.00;;;24.80;46.00;;;;;;5028178;28;20224;-39
2024/02/22 09:31:39;;;;;;;0.00;0.00;;;24.80;46.00;;;;;;5015198;28;20193;-40
2024/02/22 09:34:10;;;;;;;0.00;0.00;;;24.70;46.00;;;;;;5007636;28;20196;-40
2024/02/22 09:36:40;;;;;;;0.00;0.00;;;24.70;46.00;;;;;;5015067;28;20239;-41
2024/02/22 09:39:11;;;;;;;0.00;0.00;;;24.70;46.10;;;;;;5020694;28;20220;-39
2024/02/22 09:41:43;;;;;;;0.00;0.00;;;24.70;46.10;;;;;;5009261;28;20208;-39
2024/02/22 09:44:17;;;;;;;0.00;0.00;;;24.70;46.30;;;;;;5009147;28;20204;-39
2024/02/22 09:46:53;;;;;;;0.00;0.00;;;24.60;46.30;;;;;;4992983;28;20189;-39
2024/02/22 09:49:24;;;;;;;0.00;0.00;;;24.60;46.40;;;;;;5004436;28;20257;-43
2024/02/22 09:51:56;;;;;;;0.00;0.00;;;24.60;46.40;;;;;;5028894;28;20215;-40
2024/02/22 09:54:27;;;;;;;0.00;0.00;;;24.60;46.40;;;;;;5027540;28;20206;-39
2024/02/22 09:56:59;;;;;;;0.00;0.00;;;24.50;46.40;;;;;;5028639;28;20235;-40
2024/02/22 10:00:03;;;;;;;0.00;0.00;;;24.50;46.40;;;;;;5015766;28;20224;-40
2024/02/22 10:02:34;;;;;;;0.00;0.00;;;24.50;46.50;;;;;;5013238;28;20250;-39
2024/02/22 10:05:05;;;;;;;0.00;0.00;;;24.50;46.40;;;;;;5027226;28;20603;-39
2024/02/22 10:07:37;;;;;;;0.00;0.00;;;24.50;46.40;;;;;;5012413;28;20205;-39
2024/02/22 10:10:09;;;;;;;0.00;0.00;;;24.40;46.40;;;;;;5008447;28;20232;-39
2024/02/22 10:12:43;;;;;;;0.00;0.00;;;24.40;46.40;;;;;;5008125;28;20201;-39
2024/02/22 10:15:25;;;;;;;0.00;0.00;;;24.40;46.40;;;;;;5008147;28;20223;-41
2024/02/22 10:17:56;;;;;;;0.10;0.10;;;24.30;46.40;;;;;;5017395;28;20197;-39
2024/02/22 10:20:33;;;;;;;0.00;0.00;;;24.30;46.40;;;;;;5008121;28;20216;-39
2024/02/22 10:23:11;;;;;;;0.00;0.00;;;24.30;46.30;;;;;;5008118;28;20204;-39
2024/02/22 10:25:42;;;;;;;0.05;0.05;;;24.30;46.30;;;;;;4997051;28;20202;-44
2024/02/22 10:28:17;;;;;;;0.00;0.00;;;24.30;46.30;;;;;;4990740;28;20201;-43
2024/02/22 10:30:50;;;;;;;0.00;0.00;;;24.20;46.30;;;;;;5027841;28;20692;-39
2024/02/22 10:33:22;;;;;;;0.00;0.00;;;24.20;46.20;;;;;;5027901;28;20653;-39
2024/02/22 10:35:53;;;;;;;0.00;0.00;;;24.20;46.30;;;;;;5026050;28;20272;-43
2024/02/22 10:38:24;;;;;;;0.00;0.00;;;24.20;46.30;;;;;;5008106;28;20212;-40
2024/02/22 10:40:55;;;;;;;0.05;0.05;;;24.20;46.20;;;;;;5010046;28;20220;-39
2024/02/22 10:43:27;;;;;;;0.00;0.00;;;24.20;46.20;;;;;;5027542;28;20579;-39
2024/02/22 10:46:04;;;;;;;0.00;0.00;;;24.20;46.20;;;;;;5027408;28;20489;-40
2024/02/22 10:48:38;;;;;;;0.00;0.00;;;24.10;46.20;;;;;;5027190;28;20557;-41
2024/02/22 10:51:09;;;;;;;0.00;0.00;;;24.10;46.20;;;;;;5027615;28;20200;-40
2024/02/22 10:53:42;;;;;;;0.00;0.00;;;24.10;46.20;;;;;;5018543;28;20650;-41
2024/02/22 10:56:17;;;;;;;0.00;0.00;;;24.00;46.20;;;;;;4991810;28;20584;-39
2024/02/22 10:58:48;;;;;;;0.00;0.00;;;24.00;46.10;;;;;;4992053;28;20205;-39
2024/02/22 11:01:22;;;;;;;0.00;0.00;;;24.00;46.10;;;;;;4997894;28;20623;-38
2024/02/22 11:03:53;;;;;;;0.00;0.00;;;24.00;46.20;;;;;;5011781;28;20200;-39
2024/02/22 11:06:24;;;;;;;0.08;0.08;;;23.90;46.10;;;;;;5011846;28;20514;-39
2024/02/22 11:09:00;;;;;;;0.10;0.10;;;23.90;46.20;;;;;;4994023;28;20319;-39
2024/02/22 11:11:32;;;;;;;0.00;0.00;;;23.90;46.10;;;;;;4992120;28;20236;-39
2024/02/22 11:14:03;;;;;;;0.00;0.00;;;23.90;46.10;;;;;;4997752;28;20251;-39
2024/02/22 11:16:40;;;;;;;0.00;0.00;;;23.80;46.10;;;;;;4992260;28;20225;-38
2024/02/22 11:19:12;;;;;;;0.00;0.00;;;23.90;46.20;;;;;;4995658;28;20690;-39
2024/02/22 11:21:43;;;;;;;0.10;0.10;;;23.80;46.10;;;;;;5031556;28;20219;-40
2024/02/22 11:24:15;;;;;;;0.00;0.00;;;23.80;46.10;;;;;;5014884;28;20216;-39
2024/02/22 11:26:45;;;;;;;0.00;0.00;;;23.80;46.10;;;;;;5014718;28;20669;-40
2024/02/22 11:29:16;;;;;;;0.00;0.00;;;23.80;46.10;;;;;;5013177;28;20556;-39
2024/02/22 11:31:51;;;;;;;0.00;0.00;;;23.80;46.10;;;;;;5014749;28;20197;-39
2024/02/22 11:34:22;;;;;;;0.00;0.00;;;23.70;46.00;;;;;;4995813;28;20197;-38
2024/02/22 11:36:53;;;;;;;0.00;0.00;;;23.70;46.00;;;;;;5004437;28;20229;-40
2024/02/22 11:39:24;;;;;;;0.00;0.00;;;23.70;46.00;;;;;;5004046;28;20209;-39
2024/02/22 11:41:55;;;;;;;0.00;0.00;;;23.70;46.00;;;;;;5003460;28;20211;-38
2024/02/22 11:44:25;;;;;;;0.00;0.00;;;23.70;46.00;;;;;;5004111;28;20190;-38
2024/02/22 11:46:58;;;;;;;0.00;0.00;;;23.70;46.00;;;;;;5003496;28;20202;-39
2024/02/22 11:49:29;;;;;;;0.05;0.05;;;23.60;45.90;;;;;;5004977;28;20220;-38
2024/02/22 11:52:00;;;;;;;0.00;0.00;;;23.60;46.00;;;;;;5002648;28;20190;-39
2024/02/22 11:54:31;;;;;;;0.00;0.00;;;23.60;46.00;;;;;;5003352;28;20185;-38
2024/02/22 11:57:02;;;;;;;0.00;0.00;;;23.50;46.50;;;;;;5003364;28;20225;-41
2024/02/22 11:59:39;;;;;;;0.00;0.00;;;23.50;46.00;;;;;;5003887;28;20220;-40
2024/02/22 12:02:12;;;;;;;0.00;0.00;;;23.50;46.00;;;;;;5004555;28;20198;-40
2024/02/22 12:04:43;;;;;;;0.00;0.00;;;23.50;46.00;;;;;;5003481;28;20217;-40
2024/02/22 12:07:14;;;;;;;0.00;0.00;;;23.50;46.00;;;;;;5004929;28;20205;-39
2024/02/22 12:09:44;;;;;;;0.00;0.00;;;23.50;46.00;;;;;;5003315;28;20214;-40
2024/02/22 12:12:15;;;;;;;0.00;0.00;;;23.40;46.00;;;;;;5002419;28;20202;-39
2024/02/22 12:14:56;;;;;;;0.00;0.00;;;23.40;46.00;;;;;;5005250;28;20197;-39
2024/02/22 12:17:30;;;;;;;0.03;0.03;;;23.40;45.90;;;;;;5003348;28;20249;-39
2024/02/22 12:20:02;;;;;;;0.00;0.00;;;23.40;45.90;;;;;;5002209;28;20221;-39
2024/02/22 12:22:34;;;;;;;0.00;0.00;;;23.40;45.90;;;;;;5002948;28;20196;-41
2024/02/22 12:25:05;;;;;;;0.10;0.10;;;23.30;45.80;;;;;;5002437;28;20204;-39
2024/02/22 12:27:35;;;;;;;0.00;0.00;;;23.30;45.80;;;;;;5002641;28;20201;-39
2024/02/22 12:30:06;;;;;;;0.03;0.03;;;23.30;45.90;;;;;;5003280;28;20209;-39
2024/02/22 12:32:51;;;;;;;0.00;0.00;;;23.30;45.90;;;;;;5002779;28;20650;-39
2024/02/22 12:35:21;;;;;;;0.00;0.00;;;23.30;45.90;;;;;;5002491;28;20599;-39
2024/02/22 12:37:53;;;;;;;0.10;0.10;;;23.30;45.90;;;;;;5004490;28;20249;-39
2024/02/22 12:40:24;;;;;;;0.00;0.00;;;23.20;45.90;;;;;;5002558;28;20218;-39
2024/02/22 12:42:58;;;;;;;0.00;0.00;;;23.20;45.90;;;;;;5002178;28;20197;-40
2024/02/22 12:45:29;;;;;;;0.10;0.10;;;23.20;45.90;;;;;;5003265;28;20667;-39
2024/02/22 12:48:01;;;;;;;0.00;0.00;;;23.10;45.90;;;;;;5001701;28;20248;-42
2024/02/22 12:50:35;;;;;;;0.10;0.10;;;23.20;45.90;;;;;;5002193;28;20727;-39
2024/02/22 12:53:08;;;;;;;0.00;0.00;;;23.20;45.90;;;;;;5002859;28;20662;-40
2024/02/22 12:55:39;;;;;;;0.10;0.10;;;23.10;45.90;;;;;;5001548;28;20193;-42
2024/02/22 12:58:10;;;;;;;0.00;0.00;;;23.10;45.90;;;;;;5002889;28;20645;-40
2024/02/22 13:00:41;;;;;;;0.00;0.00;;;23.10;45.80;;;;;;5003745;28;20259;-38
2024/02/22 13:03:14;;;;;;;0.10;0.10;;;23.00;45.80;;;;;;5003250;28;20197;-41
2024/02/22 13:05:45;;;;;;;0.10;0.10;;;23.10;45.90;;;;;;5001665;28;20193;-39
2024/02/22 13:08:16;;;;;;;0.00;0.00;;;23.00;45.80;;;;;;5001924;28;20197;-39
2024/02/22 13:10:47;;;;;;;0.00;0.00;;;23.00;45.80;;;;;;5002504;28;20206;-40
2024/02/22 13:13:18;;;;;;;0.00;0.00;;;23.00;45.80;;;;;;5001479;28;20194;-39